createdAt,value
2023-03-26T00:01:35.373Z,0.55
2023-03-26T00:04:03.840Z,0.10
2023-03-26T00:06:34.044Z,0.20
2023-03-26T00:09:01.849Z,0.10
2023-03-26T00:11:29.797Z,0.10
2023-03-26T00:13:58.186Z,0.00
2023-03-26T00:16:29.541Z,0.10
2023-03-26T00:18:57.791Z,0.15
2023-03-26T00:21:27.411Z,0.57
2023-03-26T00:24:00.686Z,0.25
2023-03-26T00:26:28.427Z,0.22
2023-03-26T00:28:55.651Z,0.20
2023-03-26T00:31:23.079Z,0.08
2023-03-26T00:33:52.323Z,0.10
2023-03-26T00:36:19.626Z,0.10
2023-03-26T00:38:47.542Z,0.10
2023-03-26T00:41:17.546Z,0.20
2023-03-26T00:43:46.432Z,0.20
2023-03-26T00:46:17.454Z,0.20
2023-03-26T00:48:46.346Z,0.10
2023-03-26T00:51:15.981Z,0.10
2023-03-26T00:53:45.401Z,0.70
2023-03-26T00:56:13.195Z,0.10
2023-03-26T00:58:41.470Z,0.10
2023-03-26T01:01:12.408Z,0.10
2023-03-26T01:03:42.722Z,0.10
2023-03-26T01:06:34.038Z,0.20
2023-03-26T01:09:23.645Z,0.10
2023-03-26T01:11:51.080Z,0.10
2023-03-26T01:14:23.266Z,0.10
2023-03-26T01:16:56.957Z,0.10
2023-03-26T01:19:44.457Z,0.40
2023-03-26T01:22:17.199Z,0.20
2023-03-26T01:24:44.710Z,0.10
2023-03-26T01:27:38.326Z,0.38
2023-03-26T01:30:48.442Z,0.20
2023-03-26T01:33:37.559Z,0.10
2023-03-26T01:36:23.932Z,0.50
2023-03-26T01:39:16.154Z,0.17
2023-03-26T01:41:47.406Z,0.10
2023-03-26T01:44:27.205Z,0.10
2023-03-26T01:46:55.311Z,0.10
2023-03-26T01:49:22.818Z,0.10
2023-03-26T01:51:51.156Z,0.10
2023-03-26T01:54:22.388Z,0.10
2023-03-26T01:57:26.429Z,0.10
2023-03-26T02:00:31.628Z,0.10
2023-03-26T02:03:13.363Z,0.80
2023-03-26T02:05:49.104Z,0.10
2023-03-26T02:08:40.374Z,0.10
2023-03-26T02:11:12.196Z,0.20
2023-03-26T02:13:42.031Z,0.10
2023-03-26T02:16:12.487Z,0.10
2023-03-26T02:18:40.835Z,0.10
2023-03-26T02:21:14.667Z,0.10
2023-03-26T02:23:44.013Z,0.10
2023-03-26T02:26:11.576Z,0.15
2023-03-26T02:28:38.988Z,0.30
2023-03-26T02:31:07.708Z,0.10
2023-03-26T02:33:35.403Z,0.15
2023-03-26T02:36:04.539Z,0.10
2023-03-26T02:38:32.661Z,0.13
2023-03-26T02:41:00.104Z,0.10
2023-03-26T02:43:28.482Z,0.10
2023-03-26T02:45:56.361Z,0.10
2023-03-26T02:48:24.006Z,0.15
2023-03-26T02:50:51.368Z,0.45
2023-03-26T02:53:18.950Z,0.10
2023-03-26T02:55:46.217Z,0.10
2023-03-26T02:58:14.093Z,0.10
2023-03-26T03:00:41.888Z,0.50
2023-03-26T03:03:09.369Z,0.10
2023-03-26T03:05:36.783Z,0.10
2023-03-26T03:08:05.075Z,0.10
2023-03-26T03:10:32.672Z,0.10
2023-03-26T03:13:00.233Z,0.10
2023-03-26T03:15:27.556Z,0.10
2023-03-26T03:17:54.810Z,0.10
2023-03-26T03:20:22.325Z,0.10
2023-03-26T03:22:49.652Z,0.10
2023-03-26T03:25:17.086Z,0.10
2023-03-26T03:27:44.967Z,0.17
2023-03-26T03:30:13.648Z,0.10
2023-03-26T03:32:41.151Z,0.47
2023-03-26T03:35:09.056Z,0.10
2023-03-26T03:37:36.423Z,0.40
2023-03-26T03:40:05.195Z,0.32
2023-03-26T03:42:32.533Z,0.20
2023-03-26T03:45:07.378Z,0.20
2023-03-26T03:47:34.805Z,0.10
2023-03-26T03:50:03.612Z,0.10
2023-03-26T03:52:32.166Z,0.10
2023-03-26T03:55:00.275Z,0.10
2023-03-26T03:57:28.900Z,0.25
2023-03-26T03:59:56.698Z,0.38
2023-03-26T04:02:26.255Z,0.30
2023-03-26T04:04:55.426Z,0.20
2023-03-26T04:07:24.688Z,0.10
2023-03-26T04:09:53.168Z,0.10
2023-03-26T04:12:21.034Z,0.10
2023-03-26T04:14:49.221Z,0.00
2023-03-26T04:17:16.603Z,0.17
2023-03-26T04:19:43.888Z,0.10
2023-03-26T04:22:12.199Z,0.10
2023-03-26T04:24:39.635Z,0.10
2023-03-26T04:27:15.070Z,0.10
2023-03-26T04:29:46.039Z,0.10
2023-03-26T04:32:32.686Z,0.28
2023-03-26T04:35:04.344Z,0.20
2023-03-26T04:37:40.997Z,0.30
2023-03-26T04:40:13.769Z,0.10
2023-03-26T04:42:41.213Z,0.22
2023-03-26T04:45:09.406Z,0.20
2023-03-26T04:47:36.945Z,0.15
2023-03-26T04:50:10.405Z,0.28
2023-03-26T04:52:38.277Z,0.40
2023-03-26T04:55:12.422Z,0.45
2023-03-26T04:57:44.292Z,0.20
2023-03-26T05:00:14.370Z,0.20
2023-03-26T05:02:45.488Z,0.10
2023-03-26T05:05:13.684Z,0.25
2023-03-26T05:07:41.642Z,0.10
2023-03-26T05:10:13.533Z,0.28
2023-03-26T05:12:41.787Z,0.30
2023-03-26T05:15:11.253Z,0.30
2023-03-26T05:17:38.917Z,0.28
2023-03-26T05:20:06.812Z,0.20
2023-03-26T05:22:36.024Z,0.20
2023-03-26T05:25:05.354Z,0.10
2023-03-26T05:27:33.415Z,0.22
2023-03-26T05:30:02.297Z,0.17
2023-03-26T05:32:31.006Z,0.10
2023-03-26T05:34:59.187Z,0.17
2023-03-26T05:37:29.065Z,0.20
2023-03-26T05:39:57.183Z,0.20
2023-03-26T05:42:24.500Z,0.43
2023-03-26T05:44:51.917Z,0.05
2023-03-26T05:47:19.318Z,0.20
2023-03-26T05:49:47.035Z,0.10
2023-03-26T05:52:14.404Z,0.15
2023-03-26T05:54:42.401Z,0.10
2023-03-26T05:57:09.755Z,0.13
2023-03-26T05:59:37.642Z,0.10
2023-03-26T06:02:05.183Z,0.20
2023-03-26T06:04:33.099Z,0.10
2023-03-26T06:07:00.709Z,0.10
2023-03-26T06:09:28.874Z,0.13
2023-03-26T06:11:56.448Z,0.10
2023-03-26T06:14:23.878Z,0.00
2023-03-26T06:16:51.621Z,0.30
2023-03-26T06:19:18.948Z,0.30
2023-03-26T06:21:46.308Z,0.20
2023-03-26T06:24:13.762Z,0.20
2023-03-26T06:26:41.233Z,0.10
2023-03-26T06:29:08.922Z,0.10
2023-03-26T06:31:36.554Z,0.40
2023-03-26T06:34:03.870Z,0.10
2023-03-26T06:36:31.448Z,0.10
2023-03-26T06:38:58.962Z,0.10
2023-03-26T06:41:26.428Z,0.20
2023-03-26T06:43:53.770Z,0.10
2023-03-26T06:46:21.487Z,0.10
2023-03-26T06:48:49.115Z,0.30
2023-03-26T06:51:16.643Z,0.10
2023-03-26T06:53:44.074Z,0.10
2023-03-26T06:56:11.550Z,0.10
2023-03-26T06:58:38.852Z,0.10
2023-03-26T07:01:06.438Z,0.10
2023-03-26T07:03:33.847Z,0.13
2023-03-26T07:06:01.358Z,0.10
2023-03-26T07:08:34.623Z,0.20
2023-03-26T07:11:02.072Z,0.20
2023-03-26T07:13:30.047Z,0.70
2023-03-26T07:15:57.846Z,0.22
2023-03-26T07:18:25.223Z,0.10
2023-03-26T07:20:53.117Z,0.10
2023-03-26T07:23:21.190Z,0.30
2023-03-26T07:25:48.988Z,0.20
2023-03-26T07:28:22.181Z,0.10
2023-03-26T07:31:00.618Z,0.10
2023-03-26T07:33:56.212Z,0.22
2023-03-26T07:36:26.416Z,0.32
2023-03-26T07:39:34.786Z,0.10
2023-03-26T07:42:30.561Z,0.10
2023-03-26T07:44:57.883Z,0.10
2023-03-26T07:47:32.750Z,0.10
2023-03-26T07:50:00.484Z,0.17
2023-03-26T07:52:28.447Z,0.10
2023-03-26T07:54:56.136Z,0.10
2023-03-26T07:57:51.620Z,0.30
2023-03-26T08:00:37.334Z,0.10
2023-03-26T08:03:18.586Z,0.20
2023-03-26T08:08:48.764Z,0.10
2023-03-26T08:11:15.995Z,0.20
2023-03-26T08:13:58.382Z,0.13
2023-03-26T08:16:44.279Z,0.15
2023-03-26T08:19:34.582Z,0.00
2023-03-26T08:22:16.574Z,0.50
2023-03-26T08:25:06.531Z,0.10
2023-03-26T08:27:39.977Z,0.10
2023-03-26T08:30:10.815Z,0.10
2023-03-26T08:32:38.508Z,0.10
2023-03-26T08:35:06.468Z,0.10
2023-03-26T08:37:33.982Z,0.57
2023-03-26T08:40:01.446Z,0.03
2023-03-26T08:43:01.383Z,0.10
2023-03-26T08:45:49.015Z,0.10
2023-03-26T08:48:22.566Z,0.17
2023-03-26T08:51:08.897Z,0.00
2023-03-26T08:54:10.830Z,0.20
2023-03-26T08:57:12.088Z,0.20
2023-03-26T08:59:54.354Z,0.10
2023-03-26T09:02:52.470Z,0.10
2023-03-26T09:05:54.552Z,0.10
2023-03-26T09:08:30.727Z,0.10
2023-03-26T09:11:25.713Z,0.10
2023-03-26T09:14:08.972Z,0.15
2023-03-26T09:16:54.774Z,0.45
2023-03-26T09:19:31.269Z,0.38
2023-03-26T09:22:17.410Z,0.68
2023-03-26T09:25:03.519Z,0.10
2023-03-26T09:27:33.985Z,0.10
2023-03-26T09:30:31.862Z,0.20
2023-03-26T09:33:11.248Z,0.10
2023-03-26T09:35:55.837Z,0.10
2023-03-26T09:38:38.460Z,0.10
2023-03-26T09:41:15.572Z,0.20
2023-03-26T09:44:04.342Z,0.10
2023-03-26T09:46:49.085Z,0.10
2023-03-26T09:49:26.056Z,0.10
2023-03-26T09:52:03.521Z,0.20
2023-03-26T09:54:46.897Z,0.30
2023-03-26T09:57:23.377Z,0.20
2023-03-26T10:00:20.554Z,0.10
2023-03-26T10:03:09.911Z,0.10
2023-03-26T10:05:40.326Z,0.28
2023-03-26T10:08:23.067Z,0.28
2023-03-26T10:10:54.262Z,0.20
2023-03-26T10:13:33.769Z,0.35
2023-03-26T10:16:23.119Z,0.50
2023-03-26T10:19:10.731Z,0.22
2023-03-26T10:21:50.112Z,0.20
2023-03-26T10:24:28.837Z,0.20
2023-03-26T10:27:17.749Z,0.15
2023-03-26T10:30:37.755Z,0.10
2023-03-26T10:33:20.521Z,0.08
2023-03-26T10:35:57.083Z,0.10
2023-03-26T10:38:43.294Z,0.32
2023-03-26T10:41:23.750Z,0.10
2023-03-26T10:44:15.413Z,0.10
2023-03-26T10:46:54.200Z,0.10
2023-03-26T10:50:04.466Z,0.20
2023-03-26T10:52:36.723Z,0.00
2023-03-26T10:55:14.973Z,0.20
2023-03-26T10:57:45.747Z,0.08
2023-03-26T11:00:28.212Z,0.10
2023-03-26T11:03:13.691Z,0.10
2023-03-26T11:06:03.111Z,0.10
2023-03-26T11:08:49.907Z,0.10
2023-03-26T11:11:35.592Z,0.10
2023-03-26T11:14:10.533Z,0.20
2023-03-26T11:17:40.983Z,0.05
2023-03-26T11:20:06.091Z,0.13
2023-03-26T11:22:50.243Z,0.30
2023-03-26T11:25:32.284Z,0.10
2023-03-26T11:28:21.589Z,0.45
2023-03-26T11:31:13.543Z,0.00
2023-03-26T11:33:46.413Z,0.13
2023-03-26T11:36:22.561Z,0.20
2023-03-26T11:38:51.733Z,0.05
2023-03-26T11:41:27.831Z,0.10
2023-03-26T11:44:03.131Z,0.10
2023-03-26T11:46:33.842Z,0.40
2023-03-26T11:49:09.985Z,0.40
2023-03-26T11:51:39.633Z,0.20
2023-03-26T11:54:08.050Z,0.10
2023-03-26T11:57:05.497Z,0.10
2023-03-26T11:59:57.990Z,0.17
2023-03-26T12:02:28.640Z,0.00
2023-03-26T12:05:17.329Z,0.10
2023-03-26T12:10:42.025Z,0.57
2023-03-26T12:13:35.570Z,0.00
2023-03-26T12:16:23.797Z,0.00
2023-03-26T12:19:17.340Z,0.10
2023-03-26T12:21:48.101Z,0.20
2023-03-26T12:24:29.158Z,0.17
2023-03-26T12:27:01.014Z,0.10
2023-03-26T12:29:31.536Z,0.00
2023-03-26T12:32:13.311Z,0.20
2023-03-26T12:34:41.758Z,0.22
2023-03-26T12:37:35.287Z,0.03
2023-03-26T12:40:32.132Z,0.00
2023-03-26T12:44:53.414Z,0.32
2023-03-26T12:47:54.142Z,0.10
2023-03-26T12:48:45.460Z,0.10
2023-03-26T12:51:55.856Z,0.10
2023-03-26T12:54:55.192Z,0.20
2023-03-26T12:57:33.018Z,0.10
2023-03-26T13:00:16.160Z,0.10
2023-03-26T13:03:04.385Z,0.10
2023-03-26T13:06:02.841Z,0.60
2023-03-26T13:08:54.535Z,0.13
2023-03-26T13:11:33.796Z,0.00
2023-03-26T13:14:16.968Z,0.08
2023-03-26T13:16:56.897Z,0.00
2023-03-26T13:19:40.341Z,0.10
2023-03-26T13:22:29.201Z,0.20
2023-03-26T13:25:15.860Z,0.50
2023-03-26T13:28:27.462Z,0.13
2023-03-26T13:33:40.206Z,0.45
2023-03-26T13:36:23.258Z,0.00
2023-03-26T13:39:22.291Z,0.30
2023-03-26T13:42:05.937Z,0.20
2023-03-26T13:47:25.942Z,0.10
2023-03-26T13:50:03.565Z,0.10
2023-03-26T13:52:40.664Z,0.10
2023-03-26T13:55:32.474Z,0.10
2023-03-26T13:58:08.983Z,0.17
2023-03-26T14:00:50.831Z,0.30
2023-03-26T14:03:33.594Z,0.52
2023-03-26T14:06:06.546Z,0.10
2023-03-26T14:08:47.279Z,0.10
2023-03-26T14:11:28.354Z,0.10
2023-03-26T14:14:10.261Z,0.22
2023-03-26T14:16:48.055Z,0.20
2023-03-26T14:19:24.853Z,0.10
2023-03-26T14:21:54.923Z,0.10
2023-03-26T14:24:34.763Z,0.00
2023-03-26T14:27:37.416Z,0.10
2023-03-26T14:30:35.135Z,0.00
2023-03-26T14:33:11.269Z,0.05
2023-03-26T14:35:57.766Z,0.13
2023-03-26T14:38:57.935Z,0.10
2023-03-26T14:41:33.083Z,0.20
2023-03-26T14:44:28.794Z,0.10
2023-03-26T14:47:16.923Z,0.45
2023-03-26T14:50:08.945Z,0.10
2023-03-26T14:52:52.325Z,0.30
2023-03-26T14:56:05.533Z,2.50
2023-03-26T14:58:59.225Z,0.17
2023-03-26T15:01:46.813Z,0.10
2023-03-26T15:04:39.137Z,0.10
2023-03-26T15:07:36.223Z,0.17
2023-03-26T15:10:11.967Z,0.10
2023-03-26T15:13:07.695Z,0.10
2023-03-26T15:15:59.991Z,0.17
2023-03-26T15:18:45.367Z,0.10
2023-03-26T15:21:43.374Z,0.40
2023-03-26T15:24:16.483Z,0.30
2023-03-26T15:27:22.838Z,0.20
2023-03-26T15:30:00.772Z,0.10
2023-03-26T15:32:50.057Z,0.10
2023-03-26T15:35:46.615Z,0.20
2023-03-26T15:38:38.919Z,0.10
2023-03-26T15:41:25.194Z,0.28
2023-03-26T15:44:24.389Z,0.13
2023-03-26T15:47:25.696Z,0.25
2023-03-26T15:50:22.863Z,0.30
2023-03-26T15:53:31.838Z,0.20
2023-03-26T15:56:15.990Z,0.13
2023-03-26T15:58:55.962Z,0.25
2023-03-26T16:01:48.048Z,0.05
2023-03-26T16:04:28.888Z,0.28
2023-03-26T16:07:45.164Z,0.00
2023-03-26T16:10:33.745Z,0.30
2023-03-26T16:13:17.135Z,0.43
2023-03-26T16:16:03.712Z,0.10
2023-03-26T16:18:35.660Z,0.10
2023-03-26T16:21:32.308Z,0.10
2023-03-26T16:24:03.074Z,0.20
2023-03-26T16:26:46.388Z,0.20
2023-03-26T16:29:13.780Z,0.38
2023-03-26T16:31:59.741Z,0.73
2023-03-26T16:34:37.725Z,0.10
2023-03-26T16:37:26.071Z,0.25
2023-03-26T16:39:54.082Z,0.28
2023-03-26T16:42:39.840Z,0.40
2023-03-26T16:45:32.784Z,0.20
2023-03-26T16:48:25.721Z,0.30
2023-03-26T16:50:57.637Z,0.10
2023-03-26T16:53:59.764Z,0.30
2023-03-26T16:56:37.319Z,0.55
2023-03-26T16:59:09.153Z,0.10
2023-03-26T17:01:47.438Z,0.20
2023-03-26T17:04:19.528Z,0.25
2023-03-26T17:07:14.568Z,0.43
2023-03-26T17:09:59.274Z,0.10
2023-03-26T17:12:44.297Z,0.40
2023-03-26T17:15:30.442Z,0.50
2023-03-26T17:18:25.290Z,0.45
2023-03-26T17:20:58.703Z,0.30
2023-03-26T17:23:47.177Z,0.80
2023-03-26T17:26:31.222Z,0.35
2023-03-26T17:29:13.991Z,0.20
2023-03-26T17:32:02.060Z,0.63
2023-03-26T17:34:33.954Z,0.40
2023-03-26T17:37:04.252Z,0.38
2023-03-26T17:39:40.712Z,0.20
2023-03-26T17:42:22.488Z,0.43
2023-03-26T17:47:37.329Z,0.00
2023-03-26T17:50:27.585Z,0.20
2023-03-26T17:53:01.128Z,0.30
2023-03-26T17:55:36.354Z,0.25
2023-03-26T17:58:07.646Z,0.47
2023-03-26T18:00:49.636Z,0.10
2023-03-26T18:03:31.047Z,0.55
2023-03-26T18:06:08.377Z,0.00
2023-03-26T18:09:14.583Z,0.40
2023-03-26T18:12:00.723Z,0.20
2023-03-26T18:14:53.658Z,0.20
2023-03-26T18:17:21.377Z,0.32
2023-03-26T18:19:53.979Z,0.55
2023-03-26T18:22:28.408Z,0.43
2023-03-26T18:25:01.064Z,0.50
2023-03-26T18:27:40.641Z,0.20
2023-03-26T18:30:15.898Z,0.60
2023-03-26T18:33:01.578Z,0.20
2023-03-26T18:35:49.772Z,0.65
2023-03-26T18:38:34.983Z,0.82
2023-03-26T18:41:09.741Z,0.65
2023-03-26T18:43:44.410Z,0.57
2023-03-26T18:46:17.783Z,0.30
2023-03-26T18:48:46.649Z,0.85
2023-03-26T18:51:14.209Z,0.40
2023-03-26T18:53:52.086Z,0.38
2023-03-26T18:56:35.863Z,0.22
2023-03-26T18:59:06.928Z,0.22
2023-03-26T19:01:37.329Z,0.32
2023-03-26T19:04:06.967Z,0.63
2023-03-26T19:06:38.453Z,0.60
2023-03-26T19:09:19.584Z,0.63
2023-03-26T19:11:57.311Z,0.20
2023-03-26T19:14:25.179Z,0.38
2023-03-26T19:17:00.450Z,0.40
2023-03-26T19:19:35.684Z,0.68
2023-03-26T19:22:07.454Z,0.93
2023-03-26T19:24:35.133Z,0.82
2023-03-26T19:27:03.433Z,0.22
2023-03-26T19:29:36.005Z,1.90
2023-03-26T19:32:21.640Z,1.52
2023-03-26T19:34:49.477Z,1.33
2023-03-26T19:37:19.001Z,2.33
2023-03-26T19:39:50.210Z,0.57
2023-03-26T19:42:20.211Z,0.90
2023-03-26T19:44:48.046Z,2.17
2023-03-26T19:47:25.001Z,1.02
2023-03-26T19:50:27.415Z,1.75
2023-03-26T19:53:29.880Z,0.57
2023-03-26T19:56:16.570Z,1.05
2023-03-26T19:58:44.188Z,0.60
2023-03-26T20:01:30.826Z,3.30
2023-03-26T20:04:02.081Z,1.33
2023-03-26T20:09:12.558Z,0.57
2023-03-26T20:11:40.222Z,0.50
2023-03-26T20:14:18.917Z,2.15
2023-03-26T20:16:46.419Z,1.45
2023-03-26T20:19:15.490Z,1.92
2023-03-26T20:21:44.567Z,1.20
2023-03-26T20:24:15.042Z,1.75
2023-03-26T20:26:43.993Z,1.45
2023-03-26T20:29:15.236Z,1.15
2023-03-26T20:31:43.300Z,1.90
2023-03-26T20:34:20.421Z,1.42
2023-03-26T20:36:48.719Z,1.40
2023-03-26T20:39:16.164Z,1.95
2023-03-26T20:41:48.808Z,0.57
2023-03-26T20:44:19.902Z,0.95
2023-03-26T20:46:48.774Z,1.58
2023-03-26T20:49:16.250Z,1.27
2023-03-26T20:51:43.993Z,1.23
2023-03-26T20:54:20.599Z,1.63
2023-03-26T20:56:49.419Z,0.85
2023-03-26T20:59:20.465Z,0.63
2023-03-26T21:01:50.957Z,2.10
2023-03-26T21:04:28.927Z,2.88
2023-03-26T21:07:07.176Z,1.77
2023-03-26T21:09:43.043Z,1.83
2023-03-26T21:12:27.788Z,1.17
2023-03-26T21:14:55.832Z,1.20
2023-03-26T21:17:23.984Z,1.67
2023-03-26T21:19:55.138Z,1.55
2023-03-26T21:23:03.808Z,1.40
2023-03-26T21:25:48.218Z,0.80
2023-03-26T21:28:41.996Z,1.35
2023-03-26T21:31:16.404Z,2.17
2023-03-26T21:33:44.659Z,1.38
2023-03-26T21:36:12.494Z,1.13
2023-03-26T21:38:40.956Z,0.80
2023-03-26T21:41:24.922Z,0.98
2023-03-26T21:43:52.325Z,1.98
2023-03-26T21:46:19.991Z,1.15
2023-03-26T21:48:47.630Z,1.13
2023-03-26T21:51:15.908Z,0.85
2023-03-26T21:53:43.469Z,0.93
2023-03-26T21:56:41.604Z,1.25
2023-03-26T21:59:16.889Z,1.25
2023-03-26T22:02:22.642Z,1.65
2023-03-26T22:05:15.080Z,1.25
2023-03-26T22:07:58.678Z,0.82
2023-03-26T22:10:29.167Z,0.82
2023-03-26T22:12:59.069Z,2.25
2023-03-26T22:15:26.548Z,1.17
2023-03-26T22:17:54.307Z,2.15
2023-03-26T22:20:23.605Z,1.85
2023-03-26T22:22:51.155Z,1.60
2023-03-26T22:25:20.352Z,1.77
2023-03-26T22:27:50.628Z,1.42
2023-03-26T22:30:18.763Z,0.65
2023-03-26T22:32:46.711Z,1.42
2023-03-26T22:35:14.285Z,0.82
2023-03-26T22:37:41.998Z,0.77
2023-03-26T22:40:09.934Z,2.22
2023-03-26T22:42:39.695Z,0.73
2023-03-26T22:45:11.016Z,0.55
2023-03-26T22:47:41.299Z,1.88
2023-03-26T22:50:09.410Z,0.65
2023-03-26T22:52:37.565Z,0.65
2023-03-26T22:55:05.212Z,0.93
2023-03-26T22:57:32.970Z,0.45
2023-03-26T23:00:00.350Z,1.15
2023-03-26T23:02:27.828Z,0.63
2023-03-26T23:04:55.183Z,0.25
2023-03-26T23:07:22.596Z,0.10
2023-03-26T23:09:50.048Z,0.20
2023-03-26T23:12:17.307Z,0.52
2023-03-26T23:14:44.729Z,1.15
2023-03-26T23:17:12.212Z,0.25
2023-03-26T23:19:39.490Z,0.90
2023-03-26T23:22:06.888Z,0.20
2023-03-26T23:24:34.511Z,0.73
2023-03-26T23:27:01.980Z,0.50
2023-03-26T23:29:29.286Z,0.38
2023-03-26T23:31:56.567Z,0.50
2023-03-26T23:34:25.885Z,0.30
2023-03-26T23:36:53.215Z,0.10
2023-03-26T23:39:21.013Z,0.70
2023-03-26T23:41:48.538Z,0.55
2023-03-26T23:44:16.051Z,0.52
2023-03-26T23:46:43.381Z,0.93
2023-03-26T23:49:10.939Z,0.20
2023-03-26T23:51:38.279Z,0.52
2023-03-26T23:54:05.690Z,0.30
2023-03-26T23:56:33.584Z,0.43
2023-03-26T23:59:00.976Z,0.22
